Accueil
METAR-TAF:

METAR-TAF

Aéroports :

Aéroport de Stuttgart

Stuttgart, Allemagne

latitude: 48-41N, longitude: 009-13E, altitude: 396 m

Observation

Le bulletin a été fait il y a 16 minutes, à 00:50 UTC
Vent 7 kt de ouest/sud-ouest, variant entre sud/sud-ouest et ouest
Température 12°C
Humidité 58%
Pression 1023 hPa
Visibilité 10 km ou plus
Nuages épars à une hauteur de 3400 ft

METAR: EDDS 240050Z 25007KT 210V280 9999 SCT034 12/04 Q1023

Heure: 03:06 (01:06 UTC)

Prévision

Le bulletin a été fait il y a 2 heures et 6 minutes, à 23:00 UTC
Prévision valable du 24 à 00 UTC au 24 à 24 UTC
Vent 10 kt de ouest/sud-ouest
Visibilité 10 km ou plus
Nuages épars à une hauteur de 3500 ft
Temporairement
du 24 à 09 UTC au 24 à 16 UTC
Vent 15 kt de ouest avec des rafales jusqu'à 25 kt

TAF: EDDS 232300Z 2400/2424 25010KT 9999 SCT035 TEMPO 2409/2416 27015G25KT

Observations et prévisions météorologiques de plus de 4000 aéroports (messages METAR et TAF).

Les stations disponibles sont représentées par des disques jaunes et rouges sur la carte.

Passer la souris dessus pour voir le nom de la station.

Cliquer dessus pour voir les observations et prévisions météorologiques.

Pour changer de carte: cliquez sur les boutons verts avec une croix noire pour zoomer, sur le bouton vert avec un tiret pour effectuer un zoom arrière, ou sur les flèches vertes pour les cartes adjacentes.


METAR-TAF: